sensor_id;sensor_type;location;lat;lon;timestamp;temperature;humidity
13561;DHT22;6852;51.686;5.314;2022-08-25T00:00:09;24.20;99.90
13561;DHT22;6852;51.686;5.314;2022-08-25T00:02:36;24.20;99.90
13561;DHT22;6852;51.686;5.314;2022-08-25T00:05:04;24.10;99.90
13561;DHT22;6852;51.686;5.314;2022-08-25T00:07:32;24.00;99.90
13561;DHT22;6852;51.686;5.314;2022-08-25T00:09:59;23.90;99.90
13561;DHT22;6852;51.686;5.314;2022-08-25T00:12:26;24.00;99.90
13561;DHT22;6852;51.686;5.314;2022-08-25T00:14:52;23.90;99.90
13561;DHT22;6852;51.686;5.314;2022-08-25T00:17:20;23.90;99.90
13561;DHT22;6852;51.686;5.314;2022-08-25T00:19:47;23.80;99.90
13561;DHT22;6852;51.686;5.314;2022-08-25T00:22:14;23.90;99.90
13561;DHT22;6852;51.686;5.314;2022-08-25T00:24:41;23.80;99.90
13561;DHT22;6852;51.686;5.314;2022-08-25T00:27:08;23.90;99.90
13561;DHT22;6852;51.686;5.314;2022-08-25T00:29:37;23.90;99.90
13561;DHT22;6852;51.686;5.314;2022-08-25T00:32:05;23.80;99.90
13561;DHT22;6852;51.686;5.314;2022-08-25T00:34:35;23.90;99.90
13561;DHT22;6852;51.686;5.314;2022-08-25T00:37:03;23.80;99.90
13561;DHT22;6852;51.686;5.314;2022-08-25T00:39:32;23.90;99.90
13561;DHT22;6852;51.686;5.314;2022-08-25T00:41:59;23.80;99.90
13561;DHT22;6852;51.686;5.314;2022-08-25T00:44:30;23.80;99.90
13561;DHT22;6852;51.686;5.314;2022-08-25T00:46:59;23.90;99.90
13561;DHT22;6852;51.686;5.314;2022-08-25T00:49:33;23.90;99.90
13561;DHT22;6852;51.686;5.314;2022-08-25T00:52:18;23.80;99.90
13561;DHT22;6852;51.686;5.314;2022-08-25T00:54:53;23.70;99.90
13561;DHT22;6852;51.686;5.314;2022-08-25T00:57:25;23.70;99.90
13561;DHT22;6852;51.686;5.314;2022-08-25T01:00:03;23.60;99.90
13561;DHT22;6852;51.686;5.314;2022-08-25T01:02:31;23.60;99.90
13561;DHT22;6852;51.686;5.314;2022-08-25T01:04:58;23.60;99.90
13561;DHT22;6852;51.686;5.314;2022-08-25T01:07:25;23.60;99.90
13561;DHT22;6852;51.686;5.314;2022-08-25T01:09:52;23.70;99.90
13561;DHT22;6852;51.686;5.314;2022-08-25T01:12:19;23.70;99.90
13561;DHT22;6852;51.686;5.314;2022-08-25T01:14:48;23.60;99.90
13561;DHT22;6852;51.686;5.314;2022-08-25T01:17:15;23.60;99.90
13561;DHT22;6852;51.686;5.314;2022-08-25T01:19:42;23.50;99.90
13561;DHT22;6852;51.686;5.314;2022-08-25T01:22:09;23.50;99.90
13561;DHT22;6852;51.686;5.314;2022-08-25T01:24:46;23.60;99.90
13561;DHT22;6852;51.686;5.314;2022-08-25T01:27:16;23.50;99.90
13561;DHT22;6852;51.686;5.314;2022-08-25T01:29:43;23.50;99.90
13561;DHT22;6852;51.686;5.314;2022-08-25T01:32:11;23.50;99.90
13561;DHT22;6852;51.686;5.314;2022-08-25T01:34:43;23.50;99.90
13561;DHT22;6852;51.686;5.314;2022-08-25T01:37:12;23.50;99.90
13561;DHT22;6852;51.686;5.314;2022-08-25T01:39:40;23.50;99.90
13561;DHT22;6852;51.686;5.314;2022-08-25T01:44:45;23.40;99.90
13561;DHT22;6852;51.686;5.314;2022-08-25T01:47:13;23.40;99.90
13561;DHT22;6852;51.686;5.314;2022-08-25T01:49:40;23.40;99.90
13561;DHT22;6852;51.686;5.314;2022-08-25T01:52:33;23.40;99.90
13561;DHT22;6852;51.686;5.314;2022-08-25T01:55:03;23.40;99.90
13561;DHT22;6852;51.686;5.314;2022-08-25T01:57:30;23.40;99.90
13561;DHT22;6852;51.686;5.314;2022-08-25T01:59:57;23.40;99.90
13561;DHT22;6852;51.686;5.314;2022-08-25T02:02:24;23.30;99.90
13561;DHT22;6852;51.686;5.314;2022-08-25T02:04:51;23.30;99.90
13561;DHT22;6852;51.686;5.314;2022-08-25T02:07:19;23.30;99.90
13561;DHT22;6852;51.686;5.314;2022-08-25T02:09:46;23.20;99.90
13561;DHT22;6852;51.686;5.314;2022-08-25T02:12:12;23.20;99.90
13561;DHT22;6852;51.686;5.314;2022-08-25T02:14:40;23.20;99.90
13561;DHT22;6852;51.686;5.314;2022-08-25T02:17:07;23.20;99.90
13561;DHT22;6852;51.686;5.314;2022-08-25T02:19:35;23.20;99.90
13561;DHT22;6852;51.686;5.314;2022-08-25T02:22:02;23.10;99.90
13561;DHT22;6852;51.686;5.314;2022-08-25T02:24:29;23.20;99.90
13561;DHT22;6852;51.686;5.314;2022-08-25T02:26:56;23.10;99.90
13561;DHT22;6852;51.686;5.314;2022-08-25T02:29:23;23.10;99.90
13561;DHT22;6852;51.686;5.314;2022-08-25T02:31:50;23.10;99.90
13561;DHT22;6852;51.686;5.314;2022-08-25T02:34:17;23.10;99.90
13561;DHT22;6852;51.686;5.314;2022-08-25T02:36:44;23.00;99.90
13561;DHT22;6852;51.686;5.314;2022-08-25T02:39:11;23.00;99.90
13561;DHT22;6852;51.686;5.314;2022-08-25T02:41:38;23.00;99.90
13561;DHT22;6852;51.686;5.314;2022-08-25T02:44:06;23.00;99.90
13561;DHT22;6852;51.686;5.314;2022-08-25T02:46:33;22.90;99.90
13561;DHT22;6852;51.686;5.314;2022-08-25T02:49:01;22.90;99.90
13561;DHT22;6852;51.686;5.314;2022-08-25T02:51:28;22.80;99.90
13561;DHT22;6852;51.686;5.314;2022-08-25T02:53:57;22.80;99.90
13561;DHT22;6852;51.686;5.314;2022-08-25T02:56:24;22.70;99.90
13561;DHT22;6852;51.686;5.314;2022-08-25T02:58:51;22.70;99.90
13561;DHT22;6852;51.686;5.314;2022-08-25T03:01:19;22.70;99.90
13561;DHT22;6852;51.686;5.314;2022-08-25T03:03:48;22.70;99.90
13561;DHT22;6852;51.686;5.314;2022-08-25T03:06:19;22.60;99.90
13561;DHT22;6852;51.686;5.314;2022-08-25T03:08:48;22.70;99.90
13561;DHT22;6852;51.686;5.314;2022-08-25T03:11:15;22.70;99.90
13561;DHT22;6852;51.686;5.314;2022-08-25T03:13:43;22.60;99.90
13561;DHT22;6852;51.686;5.314;2022-08-25T03:16:10;22.60;99.90
13561;DHT22;6852;51.686;5.314;2022-08-25T03:18:41;22.60;99.90
13561;DHT22;6852;51.686;5.314;2022-08-25T03:21:09;22.60;99.90
13561;DHT22;6852;51.686;5.314;2022-08-25T03:23:38;22.50;99.90
13561;DHT22;6852;51.686;5.314;2022-08-25T03:26:06;22.40;99.90
13561;DHT22;6852;51.686;5.314;2022-08-25T03:28:52;22.50;99.90
13561;DHT22;6852;51.686;5.314;2022-08-25T03:31:22;22.50;99.90
13561;DHT22;6852;51.686;5.314;2022-08-25T03:33:49;22.50;99.90
13561;DHT22;6852;51.686;5.314;2022-08-25T03:36:16;22.50;99.90
13561;DHT22;6852;51.686;5.314;2022-08-25T03:38:43;22.50;99.90
13561;DHT22;6852;51.686;5.314;2022-08-25T03:41:15;22.50;99.90
13561;DHT22;6852;51.686;5.314;2022-08-25T03:43:42;22.40;99.90
13561;DHT22;6852;51.686;5.314;2022-08-25T03:46:19;22.40;99.90
13561;DHT22;6852;51.686;5.314;2022-08-25T03:48:46;22.40;99.90
13561;DHT22;6852;51.686;5.314;2022-08-25T03:53:51;22.40;99.90
13561;DHT22;6852;51.686;5.314;2022-08-25T03:56:18;22.30;99.90
13561;DHT22;6852;51.686;5.314;2022-08-25T03:58:45;22.30;99.90
13561;DHT22;6852;51.686;5.314;2022-08-25T04:01:14;22.20;99.90
13561;DHT22;6852;51.686;5.314;2022-08-25T04:03:44;22.20;99.90
13561;DHT22;6852;51.686;5.314;2022-08-25T04:06:11;22.20;99.90
13561;DHT22;6852;51.686;5.314;2022-08-25T04:08:38;22.10;99.90
13561;DHT22;6852;51.686;5.314;2022-08-25T04:11:18;22.10;99.90
13561;DHT22;6852;51.686;5.314;2022-08-25T04:13:46;22.10;99.90
13561;DHT22;6852;51.686;5.314;2022-08-25T04:16:19;22.10;99.90
13561;DHT22;6852;51.686;5.314;2022-08-25T04:18:47;22.10;99.90
13561;DHT22;6852;51.686;5.314;2022-08-25T04:21:16;22.10;99.90
13561;DHT22;6852;51.686;5.314;2022-08-25T04:23:44;22.10;99.90
13561;DHT22;6852;51.686;5.314;2022-08-25T04:26:14;22.10;99.90
13561;DHT22;6852;51.686;5.314;2022-08-25T04:28:41;22.10;99.90
13561;DHT22;6852;51.686;5.314;2022-08-25T04:31:09;22.00;99.90
13561;DHT22;6852;51.686;5.314;2022-08-25T04:33:37;21.90;99.90
13561;DHT22;6852;51.686;5.314;2022-08-25T04:36:05;22.00;99.90
13561;DHT22;6852;51.686;5.314;2022-08-25T04:38:39;22.10;99.90
13561;DHT22;6852;51.686;5.314;2022-08-25T04:41:07;22.00;99.90
13561;DHT22;6852;51.686;5.314;2022-08-25T04:43:36;21.90;99.90
13561;DHT22;6852;51.686;5.314;2022-08-25T04:46:08;21.90;99.90
13561;DHT22;6852;51.686;5.314;2022-08-25T04:48:37;21.90;99.90
13561;DHT22;6852;51.686;5.314;2022-08-25T04:51:07;22.00;99.90
13561;DHT22;6852;51.686;5.314;2022-08-25T04:53:35;21.90;99.90
13561;DHT22;6852;51.686;5.314;2022-08-25T04:56:06;21.90;99.90
13561;DHT22;6852;51.686;5.314;2022-08-25T04:58:34;21.90;99.90
13561;DHT22;6852;51.686;5.314;2022-08-25T05:01:12;21.90;99.90
13561;DHT22;6852;51.686;5.314;2022-08-25T05:03:42;21.90;99.90
13561;DHT22;6852;51.686;5.314;2022-08-25T05:06:09;21.90;99.90
13561;DHT22;6852;51.686;5.314;2022-08-25T05:08:41;21.90;99.90
13561;DHT22;6852;51.686;5.314;2022-08-25T05:11:12;21.90;99.90
13561;DHT22;6852;51.686;5.314;2022-08-25T05:13:41;21.90;99.90
13561;DHT22;6852;51.686;5.314;2022-08-25T05:16:12;22.00;99.90
13561;DHT22;6852;51.686;5.314;2022-08-25T05:18:39;22.00;99.90
13561;DHT22;6852;51.686;5.314;2022-08-25T05:21:11;21.90;99.90
13561;DHT22;6852;51.686;5.314;2022-08-25T05:23:39;21.90;99.90
13561;DHT22;6852;51.686;5.314;2022-08-25T05:26:10;21.90;99.90
13561;DHT22;6852;51.686;5.314;2022-08-25T05:28:41;21.80;99.90
13561;DHT22;6852;51.686;5.314;2022-08-25T05:31:10;21.90;99.90
13561;DHT22;6852;51.686;5.314;2022-08-25T05:33:39;22.10;99.90
13561;DHT22;6852;51.686;5.314;2022-08-25T05:36:07;22.10;99.90
13561;DHT22;6852;51.686;5.314;2022-08-25T05:38:35;22.20;99.90
13561;DHT22;6852;51.686;5.314;2022-08-25T05:41:05;22.20;99.90
13561;DHT22;6852;51.686;5.314;2022-08-25T05:43:33;22.20;99.90
13561;DHT22;6852;51.686;5.314;2022-08-25T05:46:00;22.20;99.90
13561;DHT22;6852;51.686;5.314;2022-08-25T05:48:27;22.30;99.90
13561;DHT22;6852;51.686;5.314;2022-08-25T05:50:57;22.20;99.90
13561;DHT22;6852;51.686;5.314;2022-08-25T05:53:25;22.30;99.90
13561;DHT22;6852;51.686;5.314;2022-08-25T05:55:53;22.30;99.90
13561;DHT22;6852;51.686;5.314;2022-08-25T05:58:22;22.40;99.90
13561;DHT22;6852;51.686;5.314;2022-08-25T06:00:49;22.40;99.90
13561;DHT22;6852;51.686;5.314;2022-08-25T06:03:17;22.50;99.90
13561;DHT22;6852;51.686;5.314;2022-08-25T06:05:44;22.40;99.90
13561;DHT22;6852;51.686;5.314;2022-08-25T06:08:11;22.50;99.90
13561;DHT22;6852;51.686;5.314;2022-08-25T06:10:38;22.50;99.90
13561;DHT22;6852;51.686;5.314;2022-08-25T06:13:04;22.50;99.90
13561;DHT22;6852;51.686;5.314;2022-08-25T06:15:32;22.60;99.90
13561;DHT22;6852;51.686;5.314;2022-08-25T06:17:59;22.60;99.90
13561;DHT22;6852;51.686;5.314;2022-08-25T06:20:29;22.70;99.90
13561;DHT22;6852;51.686;5.314;2022-08-25T06:22:57;22.50;99.90
13561;DHT22;6852;51.686;5.314;2022-08-25T06:25:25;22.70;99.90
13561;DHT22;6852;51.686;5.314;2022-08-25T06:27:53;22.80;99.90
13561;DHT22;6852;51.686;5.314;2022-08-25T06:30:22;22.70;99.90
13561;DHT22;6852;51.686;5.314;2022-08-25T06:32:54;22.80;99.90
13561;DHT22;6852;51.686;5.314;2022-08-25T06:35:21;22.80;99.90
13561;DHT22;6852;51.686;5.314;2022-08-25T06:37:48;22.90;99.90
13561;DHT22;6852;51.686;5.314;2022-08-25T06:40:15;23.00;99.90
13561;DHT22;6852;51.686;5.314;2022-08-25T06:42:47;23.00;99.90
13561;DHT22;6852;51.686;5.314;2022-08-25T06:45:14;23.10;99.90
13561;DHT22;6852;51.686;5.314;2022-08-25T06:47:41;23.10;99.90
13561;DHT22;6852;51.686;5.314;2022-08-25T06:50:11;23.20;99.90
13561;DHT22;6852;51.686;5.314;2022-08-25T06:52:39;23.30;99.90
13561;DHT22;6852;51.686;5.314;2022-08-25T06:55:06;23.50;99.90
13561;DHT22;6852;51.686;5.314;2022-08-25T06:57:33;23.50;99.90
13561;DHT22;6852;51.686;5.314;2022-08-25T07:00:04;23.70;99.90
13561;DHT22;6852;51.686;5.314;2022-08-25T07:02:32;23.90;99.90
13561;DHT22;6852;51.686;5.314;2022-08-25T07:05:01;24.10;99.90
13561;DHT22;6852;51.686;5.314;2022-08-25T07:07:30;24.30;99.90
13561;DHT22;6852;51.686;5.314;2022-08-25T07:10:10;24.40;99.90
13561;DHT22;6852;51.686;5.314;2022-08-25T07:12:37;24.50;99.90
13561;DHT22;6852;51.686;5.314;2022-08-25T07:15:04;24.50;99.90
13561;DHT22;6852;51.686;5.314;2022-08-25T07:17:47;24.60;99.90
13561;DHT22;6852;51.686;5.314;2022-08-25T07:20:15;24.80;99.90
13561;DHT22;6852;51.686;5.314;2022-08-25T07:22:46;24.90;99.90
13561;DHT22;6852;51.686;5.314;2022-08-25T07:25:13;25.10;99.90
13561;DHT22;6852;51.686;5.314;2022-08-25T07:27:43;25.10;99.90
13561;DHT22;6852;51.686;5.314;2022-08-25T07:30:10;25.30;99.90
13561;DHT22;6852;51.686;5.314;2022-08-25T07:32:37;25.30;99.90
13561;DHT22;6852;51.686;5.314;2022-08-25T07:35:08;25.40;99.90
13561;DHT22;6852;51.686;5.314;2022-08-25T07:37:47;25.40;99.90
13561;DHT22;6852;51.686;5.314;2022-08-25T07:40:22;25.70;99.90
13561;DHT22;6852;51.686;5.314;2022-08-25T07:42:51;25.80;99.90
13561;DHT22;6852;51.686;5.314;2022-08-25T07:45:19;25.70;99.90
13561;DHT22;6852;51.686;5.314;2022-08-25T07:47:47;25.80;99.90
13561;DHT22;6852;51.686;5.314;2022-08-25T07:50:17;25.70;99.90
13561;DHT22;6852;51.686;5.314;2022-08-25T07:52:44;25.70;99.90
13561;DHT22;6852;51.686;5.314;2022-08-25T07:55:20;25.80;99.90
13561;DHT22;6852;51.686;5.314;2022-08-25T07:57:47;25.80;99.90
13561;DHT22;6852;51.686;5.314;2022-08-25T08:00:21;25.70;99.90
13561;DHT22;6852;51.686;5.314;2022-08-25T08:02:50;25.70;99.90
13561;DHT22;6852;51.686;5.314;2022-08-25T08:05:17;25.80;99.90
13561;DHT22;6852;51.686;5.314;2022-08-25T08:07:43;26.00;99.90
13561;DHT22;6852;51.686;5.314;2022-08-25T08:10:13;26.20;99.90
13561;DHT22;6852;51.686;5.314;2022-08-25T08:13:01;26.20;99.90
13561;DHT22;6852;51.686;5.314;2022-08-25T08:15:28;26.40;99.90
13561;DHT22;6852;51.686;5.314;2022-08-25T08:17:57;26.40;99.90
13561;DHT22;6852;51.686;5.314;2022-08-25T08:20:25;26.40;99.90
13561;DHT22;6852;51.686;5.314;2022-08-25T08:22:52;26.60;99.90
13561;DHT22;6852;51.686;5.314;2022-08-25T08:25:19;26.80;99.90
13561;DHT22;6852;51.686;5.314;2022-08-25T08:27:52;27.00;99.90
13561;DHT22;6852;51.686;5.314;2022-08-25T08:30:21;27.00;99.90
13561;DHT22;6852;51.686;5.314;2022-08-25T08:32:52;27.00;99.90
13561;DHT22;6852;51.686;5.314;2022-08-25T08:35:35;27.30;99.90
13561;DHT22;6852;51.686;5.314;2022-08-25T08:38:02;27.60;99.90
13561;DHT22;6852;51.686;5.314;2022-08-25T08:40:44;27.80;99.90
13561;DHT22;6852;51.686;5.314;2022-08-25T08:43:33;27.70;99.90
13561;DHT22;6852;51.686;5.314;2022-08-25T08:46:02;28.00;99.90
13561;DHT22;6852;51.686;5.314;2022-08-25T08:49:00;28.20;99.90
13561;DHT22;6852;51.686;5.314;2022-08-25T08:51:46;28.30;99.90
13561;DHT22;6852;51.686;5.314;2022-08-25T08:54:19;28.80;99.90
13561;DHT22;6852;51.686;5.314;2022-08-25T08:56:50;28.80;99.90
13561;DHT22;6852;51.686;5.314;2022-08-25T08:59:25;29.00;99.90
13561;DHT22;6852;51.686;5.314;2022-08-25T09:02:00;29.10;99.90
13561;DHT22;6852;51.686;5.314;2022-08-25T09:04:36;29.50;99.90
13561;DHT22;6852;51.686;5.314;2022-08-25T09:07:15;29.50;99.90
13561;DHT22;6852;51.686;5.314;2022-08-25T09:09:46;29.80;99.90
13561;DHT22;6852;51.686;5.314;2022-08-25T09:18:42;31.00;99.90
13561;DHT22;6852;51.686;5.314;2022-08-25T09:21:46;30.40;99.90
13561;DHT22;6852;51.686;5.314;2022-08-25T09:27:28;30.80;99.90
13561;DHT22;6852;51.686;5.314;2022-08-25T09:32:34;31.60;99.90
13561;DHT22;6852;51.686;5.314;2022-08-25T09:35:09;31.90;99.90
13561;DHT22;6852;51.686;5.314;2022-08-25T09:37:40;31.60;99.90
13561;DHT22;6852;51.686;5.314;2022-08-25T09:40:07;31.40;99.90
13561;DHT22;6852;51.686;5.314;2022-08-25T09:42:56;30.90;99.90
13561;DHT22;6852;51.686;5.314;2022-08-25T09:46:00;30.70;99.90
13561;DHT22;6852;51.686;5.314;2022-08-25T09:48:33;31.20;99.90
13561;DHT22;6852;51.686;5.314;2022-08-25T09:51:36;31.40;99.90
13561;DHT22;6852;51.686;5.314;2022-08-25T09:56:50;31.70;99.90
13561;DHT22;6852;51.686;5.314;2022-08-25T09:59:24;31.70;99.90
13561;DHT22;6852;51.686;5.314;2022-08-25T10:02:04;31.80;99.90
13561;DHT22;6852;51.686;5.314;2022-08-25T10:04:46;31.70;99.90
13561;DHT22;6852;51.686;5.314;2022-08-25T10:07:22;31.40;99.90
13561;DHT22;6852;51.686;5.314;2022-08-25T10:09:58;31.20;99.90
13561;DHT22;6852;51.686;5.314;2022-08-25T10:12:33;31.10;99.90
13561;DHT22;6852;51.686;5.314;2022-08-25T10:15:24;30.80;99.90
13561;DHT22;6852;51.686;5.314;2022-08-25T10:20:43;30.90;99.90
13561;DHT22;6852;51.686;5.314;2022-08-25T10:23:12;30.90;99.90
13561;DHT22;6852;51.686;5.314;2022-08-25T10:25:44;30.90;99.90
13561;DHT22;6852;51.686;5.314;2022-08-25T10:31:07;30.80;99.90
13561;DHT22;6852;51.686;5.314;2022-08-25T10:33:58;31.00;99.90
13561;DHT22;6852;51.686;5.314;2022-08-25T10:39:00;31.20;99.90
13561;DHT22;6852;51.686;5.314;2022-08-25T10:46:54;31.10;99.90
13561;DHT22;6852;51.686;5.314;2022-08-25T10:49:43;31.00;99.90
13561;DHT22;6852;51.686;5.314;2022-08-25T10:52:18;31.00;99.90
13561;DHT22;6852;51.686;5.314;2022-08-25T11:00:10;31.00;99.90
13561;DHT22;6852;51.686;5.314;2022-08-25T11:05:41;30.90;99.90
13561;DHT22;6852;51.686;5.314;2022-08-25T11:08:15;30.80;99.90
13561;DHT22;6852;51.686;5.314;2022-08-25T11:10:51;30.90;99.90
13561;DHT22;6852;51.686;5.314;2022-08-25T11:13:30;30.90;99.90
13561;DHT22;6852;51.686;5.314;2022-08-25T11:16:08;30.90;99.90
13561;DHT22;6852;51.686;5.314;2022-08-25T11:19:06;30.90;99.90
13561;DHT22;6852;51.686;5.314;2022-08-25T11:22:00;31.30;99.90
13561;DHT22;6852;51.686;5.314;2022-08-25T11:24:41;32.20;99.90
13561;DHT22;6852;51.686;5.314;2022-08-25T11:27:20;32.70;99.90
13561;DHT22;6852;51.686;5.314;2022-08-25T11:30:06;32.70;99.90
13561;DHT22;6852;51.686;5.314;2022-08-25T11:32:36;32.70;99.90
13561;DHT22;6852;51.686;5.314;2022-08-25T11:35:11;33.30;99.90
13561;DHT22;6852;51.686;5.314;2022-08-25T11:37:58;33.80;99.90
13561;DHT22;6852;51.686;5.314;2022-08-25T11:51:48;34.60;99.90
13561;DHT22;6852;51.686;5.314;2022-08-25T11:57:04;35.20;99.90
13561;DHT22;6852;51.686;5.314;2022-08-25T12:02:34;34.40;99.90
13561;DHT22;6852;51.686;5.314;2022-08-25T12:11:01;34.40;99.90
13561;DHT22;6852;51.686;5.314;2022-08-25T12:30:23;35.80;99.90
13561;DHT22;6852;51.686;5.314;2022-08-25T12:33:06;35.90;99.90
13561;DHT22;6852;51.686;5.314;2022-08-25T12:38:16;37.40;99.90
13561;DHT22;6852;51.686;5.314;2022-08-25T12:43:33;36.20;99.90
13561;DHT22;6852;51.686;5.314;2022-08-25T12:51:39;35.50;99.90
13561;DHT22;6852;51.686;5.314;2022-08-25T12:56:58;36.00;99.90
13561;DHT22;6852;51.686;5.314;2022-08-25T12:59:39;36.40;99.90
13561;DHT22;6852;51.686;5.314;2022-08-25T13:03:32;35.20;99.90
13561;DHT22;6852;51.686;5.314;2022-08-25T13:11:36;35.30;99.90
13561;DHT22;6852;51.686;5.314;2022-08-25T13:16:35;37.20;99.90
13561;DHT22;6852;51.686;5.314;2022-08-25T13:19:05;36.00;99.90
13561;DHT22;6852;51.686;5.314;2022-08-25T13:21:36;36.40;99.90
13561;DHT22;6852;51.686;5.314;2022-08-25T13:26:55;38.30;99.90
13561;DHT22;6852;51.686;5.314;2022-08-25T13:29:29;37.60;99.90
13561;DHT22;6852;51.686;5.314;2022-08-25T13:32:08;38.10;99.90
13561;DHT22;6852;51.686;5.314;2022-08-25T13:34:41;36.30;99.90
13561;DHT22;6852;51.686;5.314;2022-08-25T13:37:18;36.50;99.90
13561;DHT22;6852;51.686;5.314;2022-08-25T13:40:12;36.80;99.90
13561;DHT22;6852;51.686;5.314;2022-08-25T13:42:45;37.00;99.90
13561;DHT22;6852;51.686;5.314;2022-08-25T13:45:31;35.70;99.90
13561;DHT22;6852;51.686;5.314;2022-08-25T13:48:11;35.70;99.90
13561;DHT22;6852;51.686;5.314;2022-08-25T13:50:48;35.90;99.90
13561;DHT22;6852;51.686;5.314;2022-08-25T13:53:22;36.20;99.90
13561;DHT22;6852;51.686;5.314;2022-08-25T13:55:55;36.00;99.90
13561;DHT22;6852;51.686;5.314;2022-08-25T13:58:26;36.30;99.90
13561;DHT22;6852;51.686;5.314;2022-08-25T14:01:16;35.70;99.90
13561;DHT22;6852;51.686;5.314;2022-08-25T14:14:58;36.50;99.90
13561;DHT22;6852;51.686;5.314;2022-08-25T14:17:25;37.00;99.90
13561;DHT22;6852;51.686;5.314;2022-08-25T14:20:15;35.60;99.90
13561;DHT22;6852;51.686;5.314;2022-08-25T14:22:42;34.50;99.90
13561;DHT22;6852;51.686;5.314;2022-08-25T14:25:09;34.30;99.90
13561;DHT22;6852;51.686;5.314;2022-08-25T14:27:41;34.20;99.90
13561;DHT22;6852;51.686;5.314;2022-08-25T14:30:28;35.00;99.90
13561;DHT22;6852;51.686;5.314;2022-08-25T14:32:56;35.20;99.90
13561;DHT22;6852;51.686;5.314;2022-08-25T14:35:24;35.40;99.90
13561;DHT22;6852;51.686;5.314;2022-08-25T14:37:50;34.60;99.90
13561;DHT22;6852;51.686;5.314;2022-08-25T14:40:17;33.90;99.90
13561;DHT22;6852;51.686;5.314;2022-08-25T14:42:46;33.60;99.90
13561;DHT22;6852;51.686;5.314;2022-08-25T14:45:16;33.60;99.90
13561;DHT22;6852;51.686;5.314;2022-08-25T14:47:44;33.90;99.90
13561;DHT22;6852;51.686;5.314;2022-08-25T14:50:17;34.00;99.90
13561;DHT22;6852;51.686;5.314;2022-08-25T14:52:46;34.00;99.90
13561;DHT22;6852;51.686;5.314;2022-08-25T14:55:17;33.70;99.90
13561;DHT22;6852;51.686;5.314;2022-08-25T14:57:58;33.50;99.90
13561;DHT22;6852;51.686;5.314;2022-08-25T15:00:25;33.50;99.90
13561;DHT22;6852;51.686;5.314;2022-08-25T15:02:53;33.50;99.90
13561;DHT22;6852;51.686;5.314;2022-08-25T15:05:23;33.70;99.90
13561;DHT22;6852;51.686;5.314;2022-08-25T15:07:54;33.90;99.90
13561;DHT22;6852;51.686;5.314;2022-08-25T15:10:40;33.90;99.90
13561;DHT22;6852;51.686;5.314;2022-08-25T15:13:09;33.70;99.90
13561;DHT22;6852;51.686;5.314;2022-08-25T15:15:38;33.40;99.90
13561;DHT22;6852;51.686;5.314;2022-08-25T15:18:19;33.70;99.90
13561;DHT22;6852;51.686;5.314;2022-08-25T15:20:47;33.60;99.90
13561;DHT22;6852;51.686;5.314;2022-08-25T15:23:19;33.40;99.90
13561;DHT22;6852;51.686;5.314;2022-08-25T15:25:47;33.40;99.90
13561;DHT22;6852;51.686;5.314;2022-08-25T15:28:19;33.20;99.90
13561;DHT22;6852;51.686;5.314;2022-08-25T15:30:48;33.10;99.90
13561;DHT22;6852;51.686;5.314;2022-08-25T15:33:15;33.30;99.90
13561;DHT22;6852;51.686;5.314;2022-08-25T15:35:42;33.10;99.90
13561;DHT22;6852;51.686;5.314;2022-08-25T15:38:11;33.00;99.90
13561;DHT22;6852;51.686;5.314;2022-08-25T15:40:38;32.80;99.90
13561;DHT22;6852;51.686;5.314;2022-08-25T15:43:05;32.50;99.90
13561;DHT22;6852;51.686;5.314;2022-08-25T15:45:32;32.40;99.90
13561;DHT22;6852;51.686;5.314;2022-08-25T15:48:02;32.30;99.90
13561;DHT22;6852;51.686;5.314;2022-08-25T15:50:32;32.20;99.90
13561;DHT22;6852;51.686;5.314;2022-08-25T15:52:59;32.20;99.90
13561;DHT22;6852;51.686;5.314;2022-08-25T15:55:26;32.10;99.90
13561;DHT22;6852;51.686;5.314;2022-08-25T15:57:54;32.10;99.90
13561;DHT22;6852;51.686;5.314;2022-08-25T16:00:21;32.10;99.90
13561;DHT22;6852;51.686;5.314;2022-08-25T16:02:48;31.90;99.90
13561;DHT22;6852;51.686;5.314;2022-08-25T16:05:15;31.90;99.90
13561;DHT22;6852;51.686;5.314;2022-08-25T16:07:43;31.70;99.90
13561;DHT22;6852;51.686;5.314;2022-08-25T16:10:17;31.80;99.90
13561;DHT22;6852;51.686;5.314;2022-08-25T16:12:43;31.80;99.90
13561;DHT22;6852;51.686;5.314;2022-08-25T16:15:11;31.80;99.90
13561;DHT22;6852;51.686;5.314;2022-08-25T16:17:38;31.90;99.90
13561;DHT22;6852;51.686;5.314;2022-08-25T16:20:09;32.00;99.90
13561;DHT22;6852;51.686;5.314;2022-08-25T16:22:39;32.00;99.90
13561;DHT22;6852;51.686;5.314;2022-08-25T16:25:07;32.00;99.90
13561;DHT22;6852;51.686;5.314;2022-08-25T16:27:34;32.10;99.90
13561;DHT22;6852;51.686;5.314;2022-08-25T16:30:06;32.00;99.90
13561;DHT22;6852;51.686;5.314;2022-08-25T16:32:33;32.00;99.90
13561;DHT22;6852;51.686;5.314;2022-08-25T16:35:01;32.00;99.90
13561;DHT22;6852;51.686;5.314;2022-08-25T16:37:28;32.00;99.90
13561;DHT22;6852;51.686;5.314;2022-08-25T16:39:56;31.90;99.90
13561;DHT22;6852;51.686;5.314;2022-08-25T16:42:23;31.90;99.90
13561;DHT22;6852;51.686;5.314;2022-08-25T16:44:52;31.90;99.90
13561;DHT22;6852;51.686;5.314;2022-08-25T16:47:19;32.00;99.90
13561;DHT22;6852;51.686;5.314;2022-08-25T16:49:52;32.00;99.90
13561;DHT22;6852;51.686;5.314;2022-08-25T16:52:20;31.90;99.90
13561;DHT22;6852;51.686;5.314;2022-08-25T16:55:06;31.80;99.90
13561;DHT22;6852;51.686;5.314;2022-08-25T16:57:47;31.80;99.90
13561;DHT22;6852;51.686;5.314;2022-08-25T17:00:17;31.70;99.90
13561;DHT22;6852;51.686;5.314;2022-08-25T17:02:45;31.50;99.90
13561;DHT22;6852;51.686;5.314;2022-08-25T17:05:13;31.60;99.90
13561;DHT22;6852;51.686;5.314;2022-08-25T17:07:40;31.50;99.90
13561;DHT22;6852;51.686;5.314;2022-08-25T17:10:07;31.40;99.90
13561;DHT22;6852;51.686;5.314;2022-08-25T17:12:38;31.20;99.90
13561;DHT22;6852;51.686;5.314;2022-08-25T17:15:06;31.30;99.90
13561;DHT22;6852;51.686;5.314;2022-08-25T17:17:33;31.20;99.90
13561;DHT22;6852;51.686;5.314;2022-08-25T17:20:02;31.20;99.90
13561;DHT22;6852;51.686;5.314;2022-08-25T17:22:30;31.20;99.90
13561;DHT22;6852;51.686;5.314;2022-08-25T17:24:57;31.10;99.90
13561;DHT22;6852;51.686;5.314;2022-08-25T17:27:26;31.20;99.90
13561;DHT22;6852;51.686;5.314;2022-08-25T17:29:54;31.30;99.90
13561;DHT22;6852;51.686;5.314;2022-08-25T17:32:21;31.20;99.90
13561;DHT22;6852;51.686;5.314;2022-08-25T17:34:56;31.20;99.90
13561;DHT22;6852;51.686;5.314;2022-08-25T17:37:23;31.10;99.90
13561;DHT22;6852;51.686;5.314;2022-08-25T17:39:51;31.10;99.90
13561;DHT22;6852;51.686;5.314;2022-08-25T17:42:29;30.90;99.90
13561;DHT22;6852;51.686;5.314;2022-08-25T17:44:56;30.80;99.90
13561;DHT22;6852;51.686;5.314;2022-08-25T17:47:23;30.60;99.90
13561;DHT22;6852;51.686;5.314;2022-08-25T17:49:50;30.30;99.90
13561;DHT22;6852;51.686;5.314;2022-08-25T17:52:17;30.20;99.90
13561;DHT22;6852;51.686;5.314;2022-08-25T17:54:51;29.90;99.90
13561;DHT22;6852;51.686;5.314;2022-08-25T17:57:18;29.80;99.90
13561;DHT22;6852;51.686;5.314;2022-08-25T17:59:46;29.40;99.90
13561;DHT22;6852;51.686;5.314;2022-08-25T18:02:13;29.20;99.90
13561;DHT22;6852;51.686;5.314;2022-08-25T18:04:40;29.20;99.90
13561;DHT22;6852;51.686;5.314;2022-08-25T18:07:08;29.00;99.90